createdAt,value
2023-05-15T00:00:25.497Z,16.90
2023-05-15T00:02:54.147Z,16.80
2023-05-15T00:05:22.597Z,16.80
2023-05-15T00:07:51.318Z,16.70
2023-05-15T00:10:19.436Z,16.70
2023-05-15T00:12:50.276Z,16.60
2023-05-15T00:15:18.944Z,16.60
2023-05-15T00:17:47.490Z,16.60
2023-05-15T00:20:16.119Z,16.50
2023-05-15T00:22:44.885Z,16.50
2023-05-15T00:25:12.993Z,16.50
2023-05-15T00:27:41.531Z,16.50
2023-05-15T00:30:12.658Z,16.50
2023-05-15T00:32:41.060Z,16.40
2023-05-15T00:35:10.031Z,16.40
2023-05-15T00:37:38.578Z,16.40
2023-05-15T00:40:09.230Z,16.40
2023-05-15T00:42:37.940Z,16.40
2023-05-15T00:45:09.588Z,16.40
2023-05-15T00:47:41.964Z,16.40
2023-05-15T00:50:11.567Z,16.40
2023-05-15T00:52:39.687Z,16.40
2023-05-15T00:55:08.659Z,16.40
2023-05-15T00:57:37.490Z,16.40
2023-05-15T01:00:08.121Z,16.30
2023-05-15T01:02:36.843Z,16.30
2023-05-15T01:05:07.557Z,16.30
2023-05-15T01:07:42.253Z,16.20
2023-05-15T01:10:11.896Z,16.20
2023-05-15T01:12:43.511Z,16.30
2023-05-15T01:15:12.853Z,16.20
2023-05-15T01:17:40.973Z,16.20
2023-05-15T01:20:13.769Z,16.20
2023-05-15T01:23:04.282Z,16.20
2023-05-15T01:26:22.326Z,16.10
2023-05-15T01:28:59.710Z,16.10
2023-05-15T01:31:32.320Z,16.10
2023-05-15T01:34:04.493Z,16.00
2023-05-15T01:36:39.306Z,16.00
2023-05-15T01:39:09.635Z,15.90
2023-05-15T01:41:43.779Z,15.90
2023-05-15T01:44:20.453Z,15.90
2023-05-15T01:46:56.576Z,15.90
2023-05-15T01:49:28.263Z,15.80
2023-05-15T01:52:00.891Z,15.80
2023-05-15T01:54:31.128Z,15.70
2023-05-15T01:57:00.637Z,15.70
2023-05-15T01:59:30.825Z,15.70
2023-05-15T02:02:00.306Z,15.70
2023-05-15T02:04:29.000Z,15.70
2023-05-15T02:06:58.338Z,15.70
2023-05-15T02:09:27.672Z,15.70
2023-05-15T02:11:56.786Z,15.70
2023-05-15T02:14:26.560Z,15.70
2023-05-15T02:16:56.270Z,15.60
2023-05-15T02:19:25.001Z,15.70
2023-05-15T02:21:53.073Z,15.70
2023-05-15T02:24:21.584Z,15.60
2023-05-15T02:26:58.587Z,15.70
2023-05-15T02:29:35.432Z,15.60
2023-05-15T02:32:16.069Z,15.60
2023-05-15T02:34:50.537Z,15.60
2023-05-15T02:37:25.332Z,15.60
2023-05-15T02:39:55.156Z,15.60
2023-05-15T02:42:24.347Z,15.50
2023-05-15T02:44:54.772Z,15.50
2023-05-15T02:47:25.400Z,15.50
2023-05-15T02:49:54.050Z,15.40
2023-05-15T02:52:24.321Z,15.40
2023-05-15T02:54:52.468Z,15.40
2023-05-15T02:57:21.003Z,16.00
2023-05-15T02:59:49.057Z,15.30
2023-05-15T03:02:17.601Z,15.30
2023-05-15T03:04:48.048Z,15.30
2023-05-15T03:07:16.872Z,15.20
2023-05-15T03:09:45.008Z,15.20
2023-05-15T03:12:13.105Z,15.20
2023-05-15T03:14:41.128Z,15.20
2023-05-15T03:17:09.760Z,15.20
2023-05-15T03:19:37.899Z,15.10
2023-05-15T03:22:07.488Z,15.10
2023-05-15T03:24:35.524Z,15.10
2023-05-15T03:27:04.062Z,15.10
2023-05-15T03:29:32.132Z,15.10
2023-05-15T03:32:00.701Z,15.00
2023-05-15T03:34:28.718Z,15.00
2023-05-15T03:36:57.239Z,15.00
2023-05-15T03:39:26.643Z,15.00
2023-05-15T03:41:54.739Z,14.90
2023-05-15T03:44:23.388Z,14.90
2023-05-15T03:46:52.069Z,14.90
2023-05-15T03:49:20.120Z,14.80
2023-05-15T03:51:48.790Z,14.80
2023-05-15T03:54:16.827Z,14.80
2023-05-15T03:56:46.795Z,14.90
2023-05-15T03:59:15.454Z,14.80
2023-05-15T04:01:59.493Z,14.80
2023-05-15T04:04:32.204Z,14.80
2023-05-15T04:07:00.305Z,14.80
2023-05-15T04:09:28.810Z,14.80
2023-05-15T04:11:58.227Z,14.80
2023-05-15T04:14:26.783Z,14.70
2023-05-15T04:16:55.432Z,14.70
2023-05-15T04:19:23.510Z,14.70
2023-05-15T04:21:51.574Z,14.70
2023-05-15T04:24:20.072Z,14.70
2023-05-15T04:26:48.619Z,14.60
2023-05-15T04:29:18.038Z,14.60
2023-05-15T04:31:46.659Z,14.70
2023-05-15T04:34:14.754Z,14.70
2023-05-15T04:36:43.554Z,14.70
2023-05-15T04:39:12.548Z,14.70
2023-05-15T04:41:41.244Z,14.70
2023-05-15T04:44:09.958Z,14.70
2023-05-15T04:46:39.774Z,14.70
2023-05-15T04:49:08.359Z,14.70
2023-05-15T04:51:36.887Z,14.80
2023-05-15T04:54:05.561Z,14.80
2023-05-15T04:56:34.069Z,14.80
2023-05-15T04:59:02.683Z,14.80
2023-05-15T05:01:31.431Z,14.80
2023-05-15T05:04:01.419Z,14.80
2023-05-15T05:06:30.611Z,14.90
2023-05-15T05:08:59.076Z,14.90
2023-05-15T05:11:27.173Z,14.90
2023-05-15T05:13:55.217Z,14.90
2023-05-15T05:16:23.775Z,14.90
2023-05-15T05:18:52.322Z,15.00
2023-05-15T05:21:21.745Z,15.00
2023-05-15T05:23:50.251Z,15.00
2023-05-15T05:26:18.327Z,15.00
2023-05-15T05:28:46.504Z,15.00
2023-05-15T05:31:14.612Z,15.10
2023-05-15T05:33:43.346Z,15.10
2023-05-15T05:36:11.589Z,15.10
2023-05-15T05:38:41.474Z,15.20
2023-05-15T05:41:10.072Z,15.20
2023-05-15T05:43:38.599Z,15.20
2023-05-15T05:46:07.145Z,15.20
2023-05-15T05:48:35.203Z,15.30
2023-05-15T05:51:03.229Z,15.30
2023-05-15T05:53:31.248Z,15.30
2023-05-15T05:56:01.057Z,15.40
2023-05-15T05:58:29.620Z,15.40
2023-05-15T06:00:57.787Z,15.40
2023-05-15T06:03:26.438Z,15.40
2023-05-15T06:05:54.724Z,15.40
2023-05-15T06:08:23.246Z,15.40
2023-05-15T06:10:51.250Z,15.40
2023-05-15T06:13:21.577Z,15.50
2023-05-15T06:15:49.610Z,15.50
2023-05-15T06:18:18.148Z,15.50
2023-05-15T06:20:47.356Z,15.50
2023-05-15T06:23:15.411Z,15.60
2023-05-15T06:25:43.982Z,15.60
2023-05-15T06:28:12.052Z,15.60
2023-05-15T06:30:42.026Z,15.60
2023-05-15T06:33:10.183Z,15.60
2023-05-15T06:35:38.384Z,15.60
2023-05-15T06:38:06.911Z,15.60
2023-05-15T06:40:34.951Z,15.70
2023-05-15T06:43:03.690Z,15.70
2023-05-15T06:45:32.216Z,15.80
2023-05-15T06:48:02.226Z,15.80
2023-05-15T06:50:30.376Z,15.80
2023-05-15T06:52:58.457Z,15.90
2023-05-15T06:55:27.166Z,15.90
2023-05-15T06:57:55.372Z,16.00
2023-05-15T07:00:24.049Z,16.00
2023-05-15T07:02:52.126Z,16.10
2023-05-15T07:05:23.047Z,16.10
2023-05-15T07:07:51.369Z,16.20
2023-05-15T07:10:19.898Z,16.30
2023-05-15T07:12:48.419Z,16.30
2023-05-15T07:15:18.106Z,16.40
2023-05-15T07:17:46.894Z,16.50
2023-05-15T07:20:15.042Z,16.60
2023-05-15T07:22:55.752Z,16.60
2023-05-15T07:25:25.268Z,16.70
2023-05-15T07:27:54.211Z,16.80
2023-05-15T07:30:23.156Z,16.90
2023-05-15T07:32:51.926Z,17.00
2023-05-15T07:35:20.153Z,17.00
2023-05-15T07:37:50.109Z,17.10
2023-05-15T07:40:18.717Z,17.10
2023-05-15T07:42:47.073Z,17.20
2023-05-15T07:45:15.637Z,17.20
2023-05-15T07:47:47.143Z,17.30
2023-05-15T07:50:15.594Z,17.30
2023-05-15T07:52:44.213Z,17.30
2023-05-15T07:55:13.868Z,17.30
2023-05-15T07:57:42.501Z,17.30
2023-05-15T08:00:13.589Z,17.40
2023-05-15T08:02:43.048Z,17.40
2023-05-15T08:05:11.283Z,17.40
2023-05-15T08:07:39.900Z,17.40
2023-05-15T08:10:09.830Z,17.40
2023-05-15T08:12:39.369Z,17.40
2023-05-15T08:15:09.059Z,17.40
2023-05-15T08:17:37.127Z,17.50
2023-05-15T08:20:06.002Z,17.50
2023-05-15T08:22:34.602Z,17.50
2023-05-15T08:25:03.850Z,17.50
2023-05-15T08:27:32.445Z,17.50
2023-05-15T08:30:01.911Z,17.60
2023-05-15T08:32:30.166Z,17.60
2023-05-15T08:34:59.185Z,17.60
2023-05-15T08:37:27.277Z,17.60
2023-05-15T08:39:55.841Z,17.70
2023-05-15T08:42:29.416Z,17.70
2023-05-15T08:44:58.334Z,17.80
2023-05-15T08:47:29.462Z,17.80
2023-05-15T08:50:05.262Z,17.80
2023-05-15T08:52:34.058Z,17.90
2023-05-15T08:55:03.234Z,17.90
2023-05-15T08:57:32.024Z,18.00
2023-05-15T09:00:01.840Z,18.00
2023-05-15T09:02:31.886Z,18.00
2023-05-15T09:04:59.921Z,18.10
2023-05-15T09:07:28.699Z,18.10
2023-05-15T09:09:58.595Z,18.10
2023-05-15T09:12:27.689Z,18.20
2023-05-15T09:15:10.839Z,18.20
2023-05-15T09:17:41.034Z,18.30
2023-05-15T09:20:26.516Z,18.30
2023-05-15T09:22:55.100Z,18.30
2023-05-15T09:25:40.151Z,18.40
2023-05-15T09:28:11.109Z,18.40
2023-05-15T09:30:39.765Z,18.40
2023-05-15T09:33:11.214Z,18.40
2023-05-15T09:35:41.015Z,18.40
2023-05-15T09:38:12.061Z,18.40
2023-05-15T09:40:41.589Z,18.50
2023-05-15T09:43:12.235Z,18.50
2023-05-15T09:45:40.845Z,18.50
2023-05-15T09:48:11.961Z,18.60
2023-05-15T09:50:41.598Z,18.60
2023-05-15T09:53:13.106Z,18.70
2023-05-15T09:55:43.843Z,18.70
2023-05-15T09:58:13.990Z,18.80
2023-05-15T10:00:47.549Z,18.80
2023-05-15T10:03:20.071Z,18.90
2023-05-15T10:05:48.838Z,18.90
2023-05-15T10:08:28.642Z,19.00
2023-05-15T10:11:00.342Z,19.10
2023-05-15T10:13:31.448Z,19.20
2023-05-15T10:16:02.195Z,19.30
2023-05-15T10:18:34.874Z,19.30
2023-05-15T10:21:04.502Z,19.40
2023-05-15T10:23:35.609Z,19.50
2023-05-15T10:26:09.681Z,19.50
2023-05-15T10:28:39.058Z,19.50
2023-05-15T10:31:07.951Z,19.60
2023-05-15T10:33:38.619Z,19.60
2023-05-15T10:36:08.303Z,19.60
2023-05-15T10:38:38.367Z,19.70
2023-05-15T10:41:17.206Z,19.70
2023-05-15T10:43:46.900Z,19.70
2023-05-15T10:46:16.432Z,19.80
2023-05-15T10:48:45.961Z,19.90
2023-05-15T10:51:19.098Z,19.90
2023-05-15T10:53:47.584Z,20.00
2023-05-15T10:56:18.083Z,20.00
2023-05-15T10:58:48.884Z,20.10
2023-05-15T11:01:28.051Z,20.10
2023-05-15T11:04:13.111Z,20.20
2023-05-15T11:06:42.459Z,20.20
2023-05-15T11:09:38.564Z,20.20
2023-05-15T11:12:08.700Z,20.20
2023-05-15T11:14:38.659Z,20.20
2023-05-15T11:17:08.485Z,20.20
2023-05-15T11:20:01.641Z,20.30
2023-05-15T11:22:32.397Z,20.40
2023-05-15T11:25:02.225Z,20.50
2023-05-15T11:27:31.902Z,20.60
2023-05-15T11:30:22.858Z,20.60
2023-05-15T11:32:58.420Z,20.70
2023-05-15T11:35:30.635Z,20.80
2023-05-15T11:38:00.008Z,20.90
2023-05-15T11:40:30.065Z,21.00
2023-05-15T11:43:09.868Z,21.00
2023-05-15T11:45:39.311Z,21.00
2023-05-15T11:48:13.439Z,21.10
2023-05-15T11:50:43.185Z,21.10
2023-05-15T11:53:12.213Z,21.20
2023-05-15T11:55:42.090Z,21.20
2023-05-15T11:58:13.938Z,21.30
2023-05-15T12:00:43.119Z,21.40
2023-05-15T12:03:18.745Z,21.40
2023-05-15T12:05:58.295Z,21.50
2023-05-15T12:08:32.728Z,21.50
2023-05-15T12:11:02.184Z,21.60
2023-05-15T12:13:31.388Z,21.60
2023-05-15T12:16:00.469Z,21.60
2023-05-15T12:18:29.210Z,21.60
2023-05-15T12:20:59.195Z,21.50
2023-05-15T12:23:29.005Z,21.50
2023-05-15T12:26:00.510Z,21.50
2023-05-15T12:28:30.616Z,21.40
2023-05-15T12:30:59.970Z,21.40
2023-05-15T12:33:28.265Z,21.50
2023-05-15T12:36:01.255Z,21.60
2023-05-15T12:38:31.091Z,21.80
2023-05-15T12:40:59.342Z,22.00
2023-05-15T12:43:27.997Z,22.20
2023-05-15T12:45:57.113Z,22.40
2023-05-15T12:48:30.218Z,22.60
2023-05-15T12:51:06.526Z,22.80
2023-05-15T12:53:35.701Z,23.00
2023-05-15T12:56:04.797Z,23.20
2023-05-15T12:58:33.230Z,23.40
2023-05-15T13:01:03.104Z,23.60
2023-05-15T13:03:32.327Z,23.70
2023-05-15T13:06:04.087Z,23.80
2023-05-15T13:08:32.510Z,23.90
2023-05-15T13:11:01.312Z,24.00
2023-05-15T13:13:45.749Z,24.10
2023-05-15T13:16:21.594Z,24.10
2023-05-15T13:18:50.397Z,24.10
2023-05-15T13:21:20.218Z,24.10
2023-05-15T13:23:48.785Z,24.10
2023-05-15T13:26:18.564Z,24.00
2023-05-15T13:28:46.678Z,24.00
2023-05-15T13:31:15.033Z,24.00
2023-05-15T13:33:43.340Z,24.10
2023-05-15T13:36:20.802Z,24.20
2023-05-15T13:38:50.742Z,24.30
2023-05-15T13:41:19.409Z,24.50
2023-05-15T13:43:49.798Z,24.60
2023-05-15T13:46:17.919Z,24.70
2023-05-15T13:48:46.519Z,24.80
2023-05-15T13:51:14.658Z,24.80
2023-05-15T13:53:43.202Z,24.90
2023-05-15T13:56:13.382Z,25.00
2023-05-15T13:58:42.959Z,25.10
2023-05-15T14:01:11.087Z,25.20
2023-05-15T14:03:39.275Z,25.40
2023-05-15T14:06:07.888Z,25.60
2023-05-15T14:08:36.423Z,25.70
2023-05-15T14:11:04.487Z,25.90
2023-05-15T14:13:35.000Z,26.00
2023-05-15T14:16:03.671Z,26.00
2023-05-15T14:18:32.333Z,26.00
2023-05-15T14:21:00.469Z,26.00
2023-05-15T14:23:28.546Z,26.00
2023-05-15T14:25:57.138Z,25.90
2023-05-15T14:28:25.196Z,25.80
2023-05-15T14:30:55.258Z,25.80
2023-05-15T14:33:23.860Z,25.60
2023-05-15T14:35:54.876Z,25.60
2023-05-15T14:38:23.423Z,25.60
2023-05-15T14:40:51.532Z,25.60
2023-05-15T14:43:21.115Z,25.60
2023-05-15T14:45:49.271Z,25.70
2023-05-15T14:48:19.180Z,25.70
2023-05-15T14:50:47.749Z,25.70
2023-05-15T14:53:16.080Z,25.70
2023-05-15T14:55:44.661Z,25.70
2023-05-15T14:58:12.728Z,25.70
2023-05-15T15:00:41.333Z,25.70
2023-05-15T15:03:09.607Z,25.60
2023-05-15T15:05:39.575Z,25.60
2023-05-15T15:08:09.060Z,25.50
2023-05-15T15:10:40.371Z,25.50
2023-05-15T15:13:10.127Z,25.50
2023-05-15T15:15:39.089Z,25.50
2023-05-15T15:18:07.836Z,25.50
2023-05-15T15:20:36.682Z,25.60
2023-05-15T15:23:06.131Z,25.70
2023-05-15T15:25:35.569Z,25.80
2023-05-15T15:28:03.799Z,26.00
2023-05-15T15:30:32.173Z,26.10
2023-05-15T15:33:00.312Z,26.20
2023-05-15T15:35:28.537Z,26.40
2023-05-15T15:37:56.762Z,26.50
2023-05-15T15:40:26.434Z,26.60
2023-05-15T15:42:54.720Z,26.60
2023-05-15T15:45:23.431Z,26.60
2023-05-15T15:47:52.054Z,26.40
2023-05-15T15:50:20.141Z,26.30
2023-05-15T15:52:48.611Z,26.10
2023-05-15T15:55:16.695Z,26.00
2023-05-15T15:57:46.873Z,25.90
2023-05-15T16:00:15.928Z,25.80
2023-05-15T16:02:44.530Z,25.80
2023-05-15T16:05:12.771Z,25.70
2023-05-15T16:07:41.360Z,25.70
2023-05-15T16:10:13.389Z,25.60
2023-05-15T16:12:43.175Z,25.60
2023-05-15T16:15:22.336Z,25.50
2023-05-15T16:17:54.271Z,25.40
2023-05-15T16:20:23.834Z,25.30
2023-05-15T16:22:53.313Z,25.20
2023-05-15T16:25:22.268Z,25.10
2023-05-15T16:27:50.403Z,25.00
2023-05-15T16:30:19.934Z,24.90
2023-05-15T16:32:49.201Z,24.80
2023-05-15T16:35:17.991Z,24.70
2023-05-15T16:37:46.546Z,24.60
2023-05-15T16:40:14.836Z,24.50
2023-05-15T16:42:43.657Z,24.30
2023-05-15T16:45:12.351Z,24.20
2023-05-15T16:47:41.820Z,24.00
2023-05-15T16:50:10.546Z,23.80
2023-05-15T16:52:45.601Z,23.70
2023-05-15T16:55:15.484Z,23.50
2023-05-15T16:57:44.179Z,23.40
2023-05-15T17:00:13.959Z,23.20
2023-05-15T17:02:44.078Z,23.10
2023-05-15T17:05:14.451Z,23.00
2023-05-15T17:07:43.322Z,22.90
2023-05-15T17:10:13.337Z,22.80
2023-05-15T17:12:41.412Z,22.60
2023-05-15T17:15:10.104Z,22.50
2023-05-15T17:17:38.687Z,22.40
2023-05-15T17:20:09.634Z,22.30
2023-05-15T17:22:39.354Z,22.30
2023-05-15T17:25:08.820Z,22.20
2023-05-15T17:27:39.790Z,22.10
2023-05-15T17:30:09.726Z,22.00
2023-05-15T17:32:37.937Z,22.00
2023-05-15T17:35:07.126Z,21.90
2023-05-15T17:37:36.693Z,21.90
2023-05-15T17:40:05.633Z,21.80
2023-05-15T17:42:34.225Z,21.70
2023-05-15T17:45:02.332Z,21.70
2023-05-15T17:47:30.923Z,21.60
2023-05-15T17:49:59.068Z,21.50
2023-05-15T17:52:28.453Z,21.40
2023-05-15T17:54:58.639Z,21.40
2023-05-15T17:57:26.753Z,21.30
2023-05-15T17:59:54.866Z,21.30
2023-05-15T18:02:22.990Z,21.20
2023-05-15T18:04:51.213Z,21.10
2023-05-15T18:07:19.451Z,21.00
2023-05-15T18:09:48.020Z,20.90
2023-05-15T18:12:17.861Z,20.90
2023-05-15T18:14:46.106Z,20.80
2023-05-15T18:17:17.774Z,20.70
2023-05-15T18:19:45.929Z,20.70
2023-05-15T18:22:14.688Z,20.60
2023-05-15T18:24:42.747Z,20.50
2023-05-15T18:27:11.900Z,20.40
2023-05-15T18:29:41.514Z,20.40
2023-05-15T18:32:10.298Z,20.30
2023-05-15T18:34:38.362Z,20.30
2023-05-15T18:37:06.694Z,20.20
2023-05-15T18:39:37.509Z,20.10
2023-05-15T18:42:06.552Z,20.10
2023-05-15T18:44:36.212Z,20.00
2023-05-15T18:47:06.096Z,19.90
2023-05-15T18:49:35.360Z,19.80
2023-05-15T18:52:03.435Z,19.70
2023-05-15T18:54:31.499Z,19.70
2023-05-15T18:57:00.143Z,19.60
2023-05-15T18:59:28.577Z,19.50
2023-05-15T19:01:57.206Z,19.40
2023-05-15T19:04:26.699Z,19.40
2023-05-15T19:06:55.248Z,19.30
2023-05-15T19:09:23.785Z,19.20
2023-05-15T19:11:52.403Z,19.10
2023-05-15T19:14:21.134Z,19.10
2023-05-15T19:16:49.266Z,19.00
2023-05-15T19:19:18.132Z,18.90
2023-05-15T19:21:48.437Z,18.90
2023-05-15T19:24:16.987Z,18.80
2023-05-15T19:26:45.135Z,18.70
2023-05-15T19:29:13.756Z,18.60
2023-05-15T19:31:43.902Z,18.60
2023-05-15T19:34:12.160Z,18.60
2023-05-15T19:36:40.626Z,18.50
2023-05-15T19:39:10.145Z,18.40
2023-05-15T19:41:38.195Z,18.40
2023-05-15T19:44:08.676Z,18.30
2023-05-15T19:46:37.334Z,18.20
2023-05-15T19:49:06.520Z,18.20
2023-05-15T19:51:35.204Z,18.10
2023-05-15T19:54:03.808Z,18.10
2023-05-15T19:56:33.281Z,18.10
2023-05-15T19:59:01.939Z,18.00
2023-05-15T20:01:30.072Z,18.00
2023-05-15T20:03:59.109Z,18.00
2023-05-15T20:06:27.375Z,18.00
2023-05-15T20:08:56.894Z,18.00
2023-05-15T20:11:24.976Z,18.00
2023-05-15T20:13:54.464Z,18.00
2023-05-15T20:16:22.566Z,18.00
2023-05-15T20:18:55.079Z,18.00
2023-05-15T20:21:23.187Z,17.90
2023-05-15T20:23:51.750Z,17.90
2023-05-15T20:26:22.381Z,17.90
2023-05-15T20:28:50.517Z,17.90
2023-05-15T20:31:20.574Z,17.80
2023-05-15T20:33:48.694Z,17.80
2023-05-15T20:36:17.274Z,17.80
2023-05-15T20:38:45.451Z,17.80
2023-05-15T20:41:14.005Z,17.70
2023-05-15T20:43:42.113Z,17.70
2023-05-15T20:46:10.810Z,17.70
2023-05-15T20:48:40.305Z,17.60
2023-05-15T20:51:08.379Z,17.70
2023-05-15T20:53:36.957Z,17.70
2023-05-15T20:56:05.430Z,17.70
2023-05-15T20:58:33.602Z,17.70
2023-05-15T21:01:01.738Z,17.70
2023-05-15T21:03:30.458Z,17.70
2023-05-15T21:06:01.740Z,17.70
2023-05-15T21:08:29.838Z,17.70
2023-05-15T21:10:57.877Z,17.70
2023-05-15T21:13:26.468Z,17.70
2023-05-15T21:15:54.561Z,17.60
2023-05-15T21:18:23.136Z,17.60
2023-05-15T21:20:52.183Z,17.60
2023-05-15T21:23:22.556Z,17.60
2023-05-15T21:25:50.618Z,17.60
2023-05-15T21:28:18.685Z,17.50
2023-05-15T21:30:47.274Z,17.50
2023-05-15T21:33:15.415Z,17.50
2023-05-15T21:35:44.938Z,17.40
2023-05-15T21:38:13.033Z,17.40
2023-05-15T21:40:43.042Z,17.30
2023-05-15T21:43:11.653Z,17.20
2023-05-15T21:45:39.736Z,17.20
2023-05-15T21:48:08.521Z,17.10
2023-05-15T21:50:36.660Z,17.10
2023-05-15T21:53:05.249Z,17.10
2023-05-15T21:55:33.802Z,17.10
2023-05-15T21:58:03.262Z,17.10
2023-05-15T22:00:32.109Z,17.00
2023-05-15T22:03:00.363Z,17.00
2023-05-15T22:05:28.962Z,17.00
2023-05-15T22:07:57.515Z,17.00
2023-05-15T22:10:26.236Z,17.00
2023-05-15T22:12:54.480Z,17.00
2023-05-15T22:15:24.433Z,17.00
2023-05-15T22:17:53.050Z,16.90
2023-05-15T22:20:21.797Z,16.90
2023-05-15T22:22:49.906Z,16.90
2023-05-15T22:25:18.452Z,16.80
2023-05-15T22:27:46.586Z,16.90
2023-05-15T22:30:15.499Z,16.90
2023-05-15T22:32:45.322Z,16.80
2023-05-15T22:35:14.777Z,16.80
2023-05-15T22:37:45.789Z,16.70
2023-05-15T22:40:14.503Z,16.70
2023-05-15T22:42:43.057Z,16.70
2023-05-15T22:45:12.257Z,16.70
2023-05-15T22:47:40.398Z,16.70
2023-05-15T22:50:11.625Z,16.60
2023-05-15T22:52:39.764Z,16.60
2023-05-15T22:55:10.769Z,16.60
2023-05-15T22:57:38.854Z,16.60
2023-05-15T23:00:10.618Z,16.60
2023-05-15T23:02:41.165Z,16.60
2023-05-15T23:05:15.270Z,16.60
2023-05-15T23:07:43.846Z,16.50
2023-05-15T23:10:12.378Z,16.50
2023-05-15T23:12:41.419Z,16.50
2023-05-15T23:15:11.770Z,16.50
2023-05-15T23:17:41.321Z,16.40
2023-05-15T23:20:11.647Z,16.40
2023-05-15T23:22:41.138Z,16.40
2023-05-15T23:25:09.923Z,16.30
2023-05-15T23:27:38.472Z,16.30
2023-05-15T23:30:07.844Z,16.30
2023-05-15T23:32:36.430Z,16.30
2023-05-15T23:35:04.814Z,16.30
2023-05-15T23:37:33.470Z,16.30
2023-05-15T23:40:05.116Z,16.30
2023-05-15T23:42:33.777Z,16.30
2023-05-15T23:45:01.929Z,16.30
2023-05-15T23:47:30.548Z,16.30
2023-05-15T23:49:58.891Z,16.30
2023-05-15T23:52:27.359Z,16.30
2023-05-15T23:54:56.029Z,16.30
2023-05-15T23:57:25.608Z,16.30
2023-05-15T23:59:54.182Z,16.30
